Pinhais, Brazil
Current Conditions -  °F | °C
As of 10:00 PM on Wednesday 26 Nov 2014 (Local Time) from SBCT Reporting Station
Broken Clouds Broken Clouds  
Wind Chill: 66°   Ceiling: 400
Heat Index: 66°   Visibility: 6mi
Dew Point: 64°   Wind: 10mph
Humidity: 94%   Direction: 120°ESE
Pressure: 29.94"   Gusts: NA
Location:  25.54°S, 49.22°W
Report Text: SBCT 270000Z 12009KT 9999 SCT002 BKN004 19/18 Q1014
Loading
Personal Weather Stations






























Interactive Weather Map New forecast layout! Learn more

10-Day Weather Forecast

Advertisements
Track Severe Weather on mobile